• Join FlightAware (Why Join?)
  • Login
  • US Flag 
09:08AM EST


 

Airport Tracker/Info


-or-


 

Live Flight TrackerFlight Track Log ✈ EJA601 ✈ 28-Apr-2013 ✈ KTEB - KLEX

Flight Track Log - Related Links

Times and Time Zones

All times are in EDT time to prevent confusion due to time zone crossing. See the EJA601 flight status page for this flight to view local times or setup timezone preferences in your user account.

Time Position Orientation Groundspeed Altitude Reporting Facility
EDT Latitude Longitude Course Direction KTS MPH feet Rate Location/Type
08:56AM 40.8122 -74.1872 246° West 200 230 5,400  Level New York Center
08:57AM 40.7964 -74.2961 259° West 255 293 9,400 3,480 Climbing New York Center
08:58AM 40.7811 -74.3886 258° West 287 330 12,300 3,240 Climbing New York Center
08:59AM 40.7628 -74.5081 259° West 305 351 15,900 3,180 Climbing New York Center
09:00AM 40.7514 -74.6089 262° West 311 358 18,800 3,060 Climbing New York Center
09:01AM 40.7286 -74.7230 259° West  Level FlightAware Approximate
09:01AM 40.7325 -74.7336 259° West 311 358 22,000  Level New York Center
09:02AM 40.7152 -74.8376 246° West  Level FlightAware Approximate
09:02AM 40.7161 -74.8506 260° West 316 364 24,700  Level New York Center
09:03AM 40.6994 -74.9672 259° West 326 375 27,300 2,400 Climbing New York Center
09:04AM 40.6806 -75.0864 258° West 331 381 29,600 2,160 Climbing New York Center
09:05AM 40.6331 -75.1928 240° Southwest 336 387 31,600 2,040 Climbing New York Center
09:06AM 40.5831 -75.3017 239° Southwest 343 395 33,700 2,100 Climbing New York Center
09:07AM 40.5397 -75.3972 239° Southwest 343 395 35,900 1,140 Climbing New York Center
09:08AM 40.4919 -75.5003 239° Southwest 343 395 36,000  Climbing New York Center
09:09AM 40.4439 -75.6036 239° Southwest 338 389 36,000  Level New York Center
09:10AM 40.3981 -75.7039 239° Southwest 332 382 36,000  Level New York Center
09:11AM 40.3567 -75.7961 240° Southwest 321 369 36,000  Level New York Center
09:12AM 40.3086 -75.8933 237° Southwest 321 369 36,000  Level New York Center
09:13AM 40.2606 -75.9906 237° Southwest 316 364 36,000  Level New York Center
09:14AM 40.2169 -76.0850 239° Southwest 316 364 36,000  Level New York Center
09:16AM 40.1367 -76.2644 240° Southwest 313 360 36,000  Level Washington Center
09:17AM 40.0903 -76.3617 238° Southwest 319 367 36,000  Level Washington Center
09:18AM 40.0439 -76.4614 239° Southwest 319 367 36,000  Level Washington Center
09:19AM 39.9931 -76.5636 237° Southwest 319 367 36,000  Level Washington Center
09:20AM 39.9464 -76.6658 239° Southwest 332 382 36,000  Level Washington Center
09:21AM 39.8997 -76.7572 236° Southwest 332 382 36,000  Level Washington Center
09:22AM 39.8528 -76.8617 240° Southwest 338 389 36,000 240 Level Washington Center
09:23AM 39.8039 -76.9636 238° Southwest 338 389 36,500 960 Climbing Washington Center
09:24AM 39.7567 -77.0681 240° Southwest 338 389 37,900 720 Climbing Washington Center
09:25AM 39.7053 -77.1747 238° Southwest 343 395 38,000  Climbing Washington Center
09:26AM 39.6539 -77.2842 239° Southwest 348 400 38,000  Level Washington Center
09:27AM 39.6022 -77.3906 238° Southwest 353 406 38,000  Level Washington Center
09:28AM 39.5528 -77.4969 239° Southwest 353 406 38,000  Level Washington Center
09:29AM 39.5031 -77.6006 238° Southwest 353 406 38,000  Level Washington Center
09:30AM 39.4556 -77.7042 239° Southwest 353 406 38,000  Level Washington Center
09:31AM 39.4078 -77.8050 239° Southwest 343 395 38,000  Level Washington Center
09:32AM 39.3622 -77.9056 240° Southwest 337 388 38,000  Level Washington Center
09:33AM 39.3228 -78.0089 244° Southwest 331 381 38,000  Level Washington Center
09:34AM 39.2808 -78.1147 243° Southwest 326 375 38,000  Level Washington Center
09:35AM 39.2392 -78.2178 242° Southwest 326 375 38,000  Level Washington Center
09:36AM 39.1972 -78.3208 242° Southwest 321 369 38,000  Level Washington Center
09:37AM 39.1575 -78.4208 243° Southwest 321 369 38,000  Level Washington Center
09:38AM 39.1153 -78.5264 243° Southwest 321 369 38,000  Level Washington Center
09:39AM 39.0731 -78.6264 241° Southwest 321 369 38,000  Level Washington Center
09:40AM 39.0331 -78.7314 244° Southwest 321 369 38,000  Level Washington Center
09:41AM 38.9906 -78.8339 242° Southwest 321 369 38,000  Level Washington Center
09:42AM 38.9503 -78.9361 243° Southwest 321 369 38,000  Level Washington Center
09:43AM 38.9078 -79.0356 241° Southwest 321 369 38,000  Level Washington Center
09:44AM 38.8653 -79.1403 242° Southwest 321 369 38,000  Level Washington Center
09:45AM 38.8328 -79.2453 248° West 321 369 38,000  Level Washington Center
09:46AM 38.8128 -79.3536 257° West 321 369 38,000  Level Washington Center
09:47AM 38.7947 -79.4672 259° West 321 369 38,000  Level Washington Center
09:48AM 38.7742 -79.5858 258° West 326 375 38,000  Level Washington Center
09:49AM 38.7536 -79.6967 257° West 331 381 38,000  Level Washington Center
09:51AM 38.7189 -79.8761 256° West 327 376 38,000  Level Indianapolis Center
09:52AM 38.6986 -79.9911 257° West 331 381 38,000  Level Indianapolis Center
09:53AM 38.6861 -80.1083 262° West 331 381 38,000  Level Indianapolis Center
09:54AM 38.6703 -80.2231 260° West 329 379 38,000  Level Indianapolis Center
09:55AM 38.6567 -80.3397 262° West 331 381 38,000  Level Indianapolis Center
09:56AM 38.6381 -80.4786 260° West 329 379 38,000  Level Indianapolis Center
09:57AM 38.6231 -80.5950 261° West 331 381 38,000 -360 Level Indianapolis Center
09:58AM 38.6083 -80.7111 261° West 331 381 37,300 -1,020 Descending Indianapolis Center
09:59AM 38.5933 -80.8269 261° West 330 380 36,000 -1,020 Descending Indianapolis Center
10:00AM 38.5778 -80.9478 261° West 341 392 35,300 -1,080 Descending Indianapolis Center
10:01AM 38.5608 -81.0722 260° West 352 405 33,800 -1,440 Descending Indianapolis Center
10:02AM 38.5447 -81.1964 261° West 353 406 32,400 -1,440 Descending Indianapolis Center
10:03AM 38.5278 -81.3186 260° West 347 399 30,900 -1,500 Descending Indianapolis Center
10:04AM 38.5106 -81.4436 260° West 351 404 29,400 -960 Descending Indianapolis Center
10:05AM 38.4933 -81.5725 260° West 361 415 29,000 -240 Descending Indianapolis Center
10:06AM 38.4761 -81.6989 260° West 357 411 29,000  Level Indianapolis Center
10:07AM 38.4561 -81.8475 260° West 354 407 29,000  Level Indianapolis Center
10:08AM 38.4383 -81.9717 260° West 354 407 29,000 -120 Level Indianapolis Center
10:09AM 38.4211 -82.0950 260° West 352 405 28,800 -840 Descending Indianapolis Center
10:10AM 38.4036 -82.2208 260° West 359 413 27,300 -1,500 Descending Indianapolis Center
10:11AM 38.3847 -82.3447 259° West 356 410 25,800 -1,440 Descending Indianapolis Center
10:12AM 38.3675 -82.4686 260° West 355 409 24,400 -1,260 Descending Indianapolis Center
10:13AM 38.3478 -82.6086 260° West 361 415 23,200 -1,320 Descending Indianapolis Center
10:14AM 38.3286 -82.7383 259° West 369 425 21,700 -1,440 Descending Indianapolis Center
10:15AM 38.3097 -82.8614 259° West 358 412 20,300 -1,440 Descending Indianapolis Center
10:16AM 38.2914 -82.9819 259° West 348 400 18,800 -1,500 Descending Indianapolis Center
10:17AM 38.2703 -83.1239 259° West 350 403 17,200 -1,500 Descending Indianapolis Center
10:18AM 38.2511 -83.2472 259° West 356 410 15,700 -1,500 Descending Indianapolis Center
10:20AM 38.2342 -83.3653 260° West 343 395 14,200 -1,140 Descending Indianapolis Center
10:21AM 38.2178 -83.4728 259° West 319 367 13,400 -1,140 Descending Indianapolis Center
10:22AM 38.2008 -83.5792 259° West 309 356 11,900 -1,200 Descending Indianapolis Center
10:23AM 38.1844 -83.6833 259° West 302 348 11,000 -480 Descending Indianapolis Center
10:24AM 38.1681 -83.7894 259° West 306 352 11,000 -300 Level Indianapolis Center
10:25AM 38.1508 -83.9100 260° West 298 343 10,500 -1,680 Descending Indianapolis Center
10:26AM 38.1464 -83.9981 266° West 252 290 7,600 -2,940 Descending Indianapolis Center
10:27AM 38.1447 -84.0850 269° West 248 285 4,500 -1,800 Descending Indianapolis Center
10:28AM 38.1394 -84.1689 265° West 244 281 4,000 -300 Descending Indianapolis Center
10:29AM 38.1358 -84.2533 267° West 241 277 4,000 -120 Level Indianapolis Center
10:30AM 38.1328 -84.3356 267° West 238 274 3,800 -540 Descending Indianapolis Center
10:31AM 38.1283 -84.4350 267° West 239 275 3,000 -420 Descending Indianapolis Center
10:32AM 38.1183 -84.5119 261° West 230 265 3,000 -420 Level Indianapolis Center
10:33AM 38.0817 -84.5542 222° Southwest 199 229 2,200 -540 Descending Indianapolis Center
10:34AM 38.0508 -84.5892 222° Southwest 192 221 2,000 -240 Descending Indianapolis Center
10:36AM 38.0333 -84.6000 270° West  Level FlightAware Approximate
10:43AM 38.0368 -84.6086 270° West  Level Estimated